Gilcrest, Colorado
Current Conditions -  °F | °C
As of 6:15 AM on Friday 24 Oct 2014 (Local Time) from KGXY Reporting Station
Clear Clear  
Wind Chill: 45°   Ceiling: Unl
Heat Index: 45°   Visibility: 10mi
Dew Point: 34°   Wind: 0mph
Humidity: 66%   Direction: NA
Pressure: 30.13"   Gusts: NA
Location:  40.28°N, 104.78°W
Report Text: KGXY 241215Z AUTO 00000KT 10SM CLR 07/01 A3013 RMK AO1
Loading
Personal Weather Stations






























Interactive Weather Map New forecast layout! Learn more

10-Day Weather Forecast

Advertisements
Track Severe Weather on mobile